createdAt,value
2023-04-02T00:01:51.022Z,75.31
2023-04-02T00:04:38.224Z,75.25
2023-04-02T00:07:33.802Z,75.14
2023-04-02T00:10:32.140Z,75.22
2023-04-02T00:13:08.083Z,75.11
2023-04-02T00:16:03.453Z,75.07
2023-04-02T00:18:51.540Z,75.22
2023-04-02T00:21:47.379Z,75.10
2023-04-02T00:24:41.632Z,75.15
2023-04-02T00:27:25.777Z,75.07
2023-04-02T00:30:18.734Z,75.06
2023-04-02T00:33:17.242Z,74.84
2023-04-02T00:36:11.707Z,74.86
2023-04-02T00:39:09.064Z,74.88
2023-04-02T00:41:54.854Z,74.64
2023-04-02T00:44:43.288Z,74.45
2023-04-02T00:47:27.361Z,74.50
2023-04-02T00:50:22.031Z,74.43
2023-04-02T00:53:23.351Z,74.31
2023-04-02T00:56:22.498Z,74.42
2023-04-02T00:59:26.343Z,74.38
2023-04-02T01:02:02.816Z,74.33
2023-04-02T01:04:58.180Z,74.23
2023-04-02T01:08:11.819Z,74.29
2023-04-02T01:11:01.846Z,74.22
2023-04-02T01:14:02.260Z,74.02
2023-04-02T01:16:50.672Z,73.96
2023-04-02T01:20:12.063Z,74.03
2023-04-02T01:23:09.763Z,73.98
2023-04-02T01:26:01.248Z,73.95
2023-04-02T01:29:00.136Z,73.93
2023-04-02T01:31:48.393Z,73.90
2023-04-02T01:34:37.125Z,73.50
2023-04-02T01:37:49.643Z,73.17
2023-04-02T01:40:40.763Z,73.26
2023-04-02T01:43:42.041Z,73.06
2023-04-02T01:46:36.932Z,72.94
2023-04-02T01:49:23.699Z,72.90
2023-04-02T01:52:27.042Z,72.97
2023-04-02T01:55:26.050Z,73.01
2023-04-02T01:58:11.451Z,72.90
2023-04-02T02:01:07.506Z,72.88
2023-04-02T02:04:01.205Z,72.73
2023-04-02T02:06:48.564Z,72.68
2023-04-02T02:09:41.892Z,72.80
2023-04-02T02:12:35.258Z,72.77
2023-04-02T02:15:28.033Z,72.91
2023-04-02T02:18:24.693Z,72.71
2023-04-02T02:21:29.922Z,72.61
2023-04-02T02:24:26.813Z,72.41
2023-04-02T02:27:45.509Z,72.24
2023-04-02T02:30:43.806Z,72.28
2023-04-02T02:33:35.550Z,72.32
2023-04-02T02:36:34.134Z,72.25
2023-04-02T02:39:25.794Z,72.23
2023-04-02T02:42:27.292Z,72.14
2023-04-02T02:45:26.596Z,72.24
2023-04-02T02:48:11.438Z,72.12
2023-04-02T02:51:09.274Z,71.87
2023-04-02T02:54:08.036Z,71.65
2023-04-02T02:56:59.060Z,71.35
2023-04-02T02:59:54.244Z,71.37
2023-04-02T03:02:49.782Z,71.39
2023-04-02T03:05:43.876Z,71.38
2023-04-02T03:08:40.551Z,71.33
2023-04-02T03:11:41.465Z,71.31
2023-04-02T03:14:39.728Z,71.27
2023-04-02T03:17:38.196Z,71.12
2023-04-02T03:20:40.586Z,70.84
2023-04-02T03:23:37.787Z,70.92
2023-04-02T03:26:17.709Z,71.05
2023-04-02T03:29:17.746Z,71.23
2023-04-02T03:32:18.371Z,71.28
2023-04-02T03:35:20.635Z,71.38
2023-04-02T03:38:09.397Z,71.34
2023-04-02T03:41:03.502Z,71.43
2023-04-02T03:43:48.082Z,71.44
2023-04-02T03:46:58.544Z,71.50
2023-04-02T03:49:56.590Z,71.38
2023-04-02T03:52:49.797Z,71.50
2023-04-02T03:55:44.262Z,71.53
2023-04-02T03:58:45.144Z,71.47
2023-04-02T04:01:44.873Z,71.49
2023-04-02T04:04:43.889Z,71.52
2023-04-02T04:07:41.498Z,71.66
2023-04-02T04:10:36.246Z,71.75
2023-04-02T04:13:30.248Z,71.67
2023-04-02T04:16:29.230Z,71.54
2023-04-02T04:19:30.176Z,71.57
2023-04-02T04:22:30.454Z,71.70
2023-04-02T04:25:30.207Z,71.76
2023-04-02T04:28:28.040Z,71.79
2023-04-02T04:31:31.365Z,71.93
2023-04-02T04:34:31.478Z,72.04
2023-04-02T04:37:33.685Z,72.03
2023-04-02T04:40:28.580Z,72.01
2023-04-02T04:43:20.096Z,72.00
2023-04-02T04:46:11.727Z,71.97
2023-04-02T04:48:54.035Z,71.94
2023-04-02T04:51:44.195Z,72.01
2023-04-02T04:54:29.426Z,72.05
2023-04-02T04:57:31.163Z,71.95
2023-04-02T05:00:28.295Z,71.84
2023-04-02T05:03:22.398Z,71.66
2023-04-02T05:06:15.101Z,71.41
2023-04-02T05:09:14.731Z,71.38
2023-04-02T05:12:18.338Z,71.26
2023-04-02T05:15:18.427Z,71.37
2023-04-02T05:18:25.088Z,71.29
2023-04-02T05:21:24.150Z,71.01
2023-04-02T05:24:43.518Z,70.76
2023-04-02T05:27:43.619Z,70.75
2023-04-02T05:30:46.900Z,70.69
2023-04-02T05:33:41.089Z,70.45
2023-04-02T05:36:34.655Z,69.88
2023-04-02T05:39:12.444Z,69.30
2023-04-02T05:42:05.696Z,68.94
2023-04-02T05:45:19.344Z,68.62
2023-04-02T05:48:06.083Z,68.00
2023-04-02T05:50:55.626Z,67.10
2023-04-02T05:53:38.247Z,66.75
2023-04-02T05:56:38.819Z,66.67
2023-04-02T05:59:22.954Z,66.48
2023-04-02T06:02:03.097Z,66.52
2023-04-02T06:04:48.021Z,66.55
2023-04-02T06:07:52.320Z,66.64
2023-04-02T06:10:36.704Z,66.32
2023-04-02T06:13:17.765Z,66.27
2023-04-02T06:16:14.587Z,66.54
2023-04-02T06:18:50.974Z,66.43
2023-04-02T06:21:50.027Z,66.50
2023-04-02T06:24:40.278Z,66.47
2023-04-02T06:27:25.225Z,66.54
2023-04-02T06:30:23.736Z,66.83
2023-04-02T06:33:17.279Z,67.13
2023-04-02T06:36:13.042Z,67.38
2023-04-02T06:39:12.715Z,67.54
2023-04-02T06:42:04.775Z,67.81
2023-04-02T06:45:22.636Z,68.06
2023-04-02T06:48:35.518Z,68.20
2023-04-02T06:51:29.285Z,67.82
2023-04-02T06:54:22.697Z,67.34
2023-04-02T06:57:16.362Z,66.94
2023-04-02T07:00:37.264Z,66.62
2023-04-02T07:03:32.933Z,66.63
2023-04-02T07:06:25.364Z,66.11
2023-04-02T07:09:11.011Z,65.89
2023-04-02T07:12:04.246Z,65.84
2023-04-02T07:14:57.748Z,65.78
2023-04-02T07:17:51.097Z,65.41
2023-04-02T07:20:44.314Z,65.18
2023-04-02T07:23:21.811Z,64.75
2023-04-02T07:26:20.089Z,64.49
2023-04-02T07:28:57.790Z,64.61
2023-04-02T07:31:42.131Z,63.77
2023-04-02T07:34:34.646Z,63.21
2023-04-02T07:37:27.865Z,62.98
2023-04-02T07:40:04.105Z,62.58
2023-04-02T07:42:49.753Z,62.86
2023-04-02T07:45:37.493Z,62.52
2023-04-02T07:48:23.504Z,62.72
2023-04-02T07:51:21.562Z,62.59
2023-04-02T07:54:10.481Z,62.56
2023-04-02T07:56:43.305Z,62.73
2023-04-02T07:59:19.551Z,62.53
2023-04-02T08:02:06.047Z,62.27
2023-04-02T08:04:59.162Z,61.67
2023-04-02T08:07:42.977Z,61.49
2023-04-02T08:10:26.695Z,61.72
2023-04-02T08:13:19.738Z,61.29
2023-04-02T08:15:54.869Z,60.61
2023-04-02T08:18:48.014Z,60.70
2023-04-02T08:21:42.482Z,61.06
2023-04-02T08:24:35.601Z,60.95
2023-04-02T08:27:15.128Z,59.45
2023-04-02T08:30:13.875Z,59.30
2023-04-02T08:33:08.734Z,59.45
2023-04-02T08:36:01.875Z,59.42
2023-04-02T08:38:55.969Z,59.94
2023-04-02T08:41:59.802Z,61.01
2023-04-02T08:45:21.285Z,60.85
2023-04-02T08:48:18.704Z,61.32
2023-04-02T08:51:24.206Z,61.95
2023-04-02T08:54:23.078Z,62.25
2023-04-02T08:57:17.021Z,63.31
2023-04-02T08:59:55.644Z,63.75
2023-04-02T09:02:36.397Z,62.89
2023-04-02T09:05:24.517Z,62.64
2023-04-02T09:08:22.166Z,61.65
2023-04-02T09:11:11.177Z,60.12
2023-04-02T09:14:08.473Z,58.54
2023-04-02T09:16:49.905Z,58.35
2023-04-02T09:19:46.203Z,58.69
2023-04-02T09:22:24.878Z,59.58
2023-04-02T09:25:21.069Z,59.88
2023-04-02T09:28:15.842Z,60.39
2023-04-02T09:31:20.891Z,60.55
2023-04-02T09:33:54.850Z,60.61
2023-04-02T09:36:39.352Z,61.22
2023-04-02T09:39:21.852Z,61.32
2023-04-02T09:42:05.513Z,62.09
2023-04-02T09:44:41.978Z,62.50
2023-04-02T09:47:28.906Z,63.89
2023-04-02T09:50:25.290Z,63.73
2023-04-02T09:53:00.174Z,63.42
2023-04-02T09:55:35.529Z,62.66
2023-04-02T09:58:13.018Z,61.86
2023-04-02T10:00:56.441Z,61.72
2023-04-02T10:03:33.145Z,60.54
2023-04-02T10:06:18.449Z,59.68
2023-04-02T10:08:52.011Z,59.10
2023-04-02T10:11:46.115Z,59.44
2023-04-02T10:14:35.746Z,59.85
2023-04-02T10:17:17.459Z,60.26
2023-04-02T10:20:09.566Z,60.86
2023-04-02T10:22:47.243Z,61.34
2023-04-02T10:25:26.635Z,61.62
2023-04-02T10:28:38.572Z,61.76
2023-04-02T10:31:27.634Z,62.12
2023-04-02T10:34:09.365Z,64.25
2023-04-02T10:36:51.550Z,64.31
2023-04-02T10:39:35.557Z,63.53
2023-04-02T10:42:18.446Z,62.56
2023-04-02T10:44:58.465Z,63.23
2023-04-02T10:47:39.465Z,62.46
2023-04-02T10:50:34.219Z,61.58
2023-04-02T10:53:16.128Z,57.82
2023-04-02T10:56:08.197Z,56.78
2023-04-02T10:59:05.570Z,57.75
2023-04-02T11:01:45.219Z,58.71
2023-04-02T11:04:23.700Z,59.23
2023-04-02T11:07:13.883Z,60.10
2023-04-02T11:09:55.015Z,60.59
2023-04-02T11:12:42.011Z,60.69
2023-04-02T11:15:21.169Z,61.11
2023-04-02T11:18:06.184Z,61.56
2023-04-02T11:21:02.309Z,62.16
2023-04-02T11:23:40.934Z,61.63
2023-04-02T11:26:43.129Z,61.60
2023-04-02T11:29:23.851Z,61.66
2023-04-02T11:32:36.791Z,61.67
2023-04-02T11:35:28.369Z,61.90
2023-04-02T11:38:25.642Z,61.78
2023-04-02T11:41:04.014Z,61.87
2023-04-02T11:44:01.137Z,61.82
2023-04-02T11:46:50.924Z,62.07
2023-04-02T11:50:02.724Z,62.19
2023-04-02T11:52:55.962Z,62.17
2023-04-02T11:55:34.290Z,62.87
2023-04-02T11:58:38.462Z,65.47
2023-04-02T12:01:58.891Z,63.10
2023-04-02T12:04:58.002Z,61.60
2023-04-02T12:07:58.131Z,56.98
2023-04-02T12:10:57.776Z,55.15
2023-04-02T12:13:58.597Z,55.44
2023-04-02T12:16:38.953Z,56.48
2023-04-02T12:19:19.812Z,57.48
2023-04-02T12:21:56.685Z,58.44
2023-04-02T12:24:33.434Z,59.28
2023-04-02T12:27:23.597Z,59.81
2023-04-02T12:30:20.848Z,60.26
2023-04-02T12:33:31.033Z,61.07
2023-04-02T12:36:24.748Z,61.60
2023-04-02T12:39:19.849Z,64.59
2023-04-02T12:42:30.803Z,65.79
2023-04-02T12:45:29.686Z,63.03
2023-04-02T12:48:22.616Z,59.15
2023-04-02T12:51:17.194Z,57.42
2023-04-02T12:53:54.984Z,57.60
2023-04-02T12:56:47.204Z,58.17
2023-04-02T12:59:40.098Z,58.96
2023-04-02T13:02:26.583Z,59.48
2023-04-02T13:05:36.660Z,60.22
2023-04-02T13:08:33.268Z,60.70
2023-04-02T13:11:19.441Z,61.08
2023-04-02T13:14:21.348Z,61.37
2023-04-02T13:17:27.150Z,61.84
2023-04-02T13:20:37.517Z,64.44
2023-04-02T13:23:38.956Z,64.54
2023-04-02T13:26:34.553Z,61.89
2023-04-02T13:29:30.393Z,58.57
2023-04-02T13:32:23.975Z,57.47
2023-04-02T13:35:08.136Z,58.21
2023-04-02T13:38:04.267Z,59.46
2023-04-02T13:40:49.812Z,60.39
2023-04-02T13:43:36.081Z,61.26
2023-04-02T13:46:31.506Z,62.00
2023-04-02T13:49:07.441Z,63.60
2023-04-02T13:51:53.068Z,64.23
2023-04-02T13:54:48.921Z,63.50
2023-04-02T13:57:43.395Z,60.67
2023-04-02T14:00:37.822Z,58.41
2023-04-02T14:03:34.602Z,57.41
2023-04-02T14:06:37.438Z,57.88
2023-04-02T14:09:41.445Z,59.48
2023-04-02T14:12:48.981Z,60.40
2023-04-02T14:15:57.259Z,61.42
2023-04-02T14:18:48.817Z,63.98
2023-04-02T14:21:55.608Z,65.41
2023-04-02T14:24:58.115Z,62.87
2023-04-02T14:27:49.314Z,61.34
2023-04-02T14:30:43.466Z,58.67
2023-04-02T14:33:46.317Z,57.33
2023-04-02T14:36:49.937Z,58.08
2023-04-02T14:39:45.924Z,59.04
2023-04-02T14:42:46.053Z,60.50
2023-04-02T14:45:41.595Z,61.45
2023-04-02T14:48:42.964Z,64.01
2023-04-02T14:51:33.558Z,65.59
2023-04-02T14:54:16.753Z,64.10
2023-04-02T14:57:21.671Z,61.74
2023-04-02T15:00:30.835Z,57.56
2023-04-02T15:03:27.770Z,57.01
2023-04-02T15:06:25.924Z,58.29
2023-04-02T15:09:33.553Z,59.55
2023-04-02T15:12:24.083Z,61.35
2023-04-02T15:15:24.328Z,64.42
2023-04-02T15:18:17.102Z,65.05
2023-04-02T15:21:29.695Z,64.87
2023-04-02T15:24:28.874Z,63.49
2023-04-02T15:27:23.911Z,62.76
2023-04-02T15:30:22.192Z,62.18
2023-04-02T15:33:47.038Z,60.61
2023-04-02T15:36:57.872Z,60.41
2023-04-02T15:40:20.785Z,60.88
2023-04-02T15:43:22.382Z,61.46
2023-04-02T15:46:23.010Z,62.04
2023-04-02T15:49:35.340Z,60.05
2023-04-02T15:52:24.529Z,57.68
2023-04-02T15:55:28.012Z,57.33
2023-04-02T15:58:35.625Z,59.05
2023-04-02T16:01:55.477Z,60.73
2023-04-02T16:04:56.289Z,65.80
2023-04-02T16:08:37.525Z,66.85
2023-04-02T16:11:17.151Z,65.56
2023-04-02T16:14:23.442Z,63.27
2023-04-02T16:17:24.949Z,62.20
2023-04-02T16:20:24.118Z,61.35
2023-04-02T16:23:13.944Z,61.02
2023-04-02T16:26:04.781Z,60.65
2023-04-02T16:29:12.915Z,62.33
2023-04-02T16:32:36.131Z,62.32
2023-04-02T16:35:43.590Z,62.26
2023-04-02T16:38:42.080Z,61.90
2023-04-02T16:41:37.443Z,62.38
2023-04-02T16:44:39.470Z,62.24
2023-04-02T16:47:41.889Z,62.74
2023-04-02T16:50:46.100Z,62.79
2023-04-02T16:54:00.959Z,63.17
2023-04-02T16:57:10.731Z,64.02
2023-04-02T17:00:02.521Z,65.05
2023-04-02T17:03:22.278Z,64.81
2023-04-02T17:06:06.171Z,64.14
2023-04-02T17:08:55.416Z,62.69
2023-04-02T17:11:53.404Z,61.40
2023-04-02T17:14:52.484Z,60.87
2023-04-02T17:17:28.598Z,60.22
2023-04-02T17:20:27.214Z,60.48
2023-04-02T17:23:11.205Z,60.10
2023-04-02T17:26:10.535Z,60.51
2023-04-02T17:28:46.105Z,60.51
2023-04-02T17:31:23.396Z,60.68
2023-04-02T17:34:01.068Z,61.71
2023-04-02T17:36:49.207Z,61.88
2023-04-02T17:39:32.621Z,62.14
2023-04-02T17:42:22.382Z,62.82
2023-04-02T17:45:14.993Z,63.15
2023-04-02T17:47:57.792Z,63.31
2023-04-02T17:51:02.618Z,63.63
2023-04-02T17:53:51.383Z,64.43
2023-04-02T17:56:53.033Z,64.97
2023-04-02T18:00:02.588Z,65.31
2023-04-02T18:03:00.383Z,65.94
2023-04-02T18:05:43.943Z,65.63
2023-04-02T18:08:26.065Z,65.96
2023-04-02T18:11:29.743Z,65.95
2023-04-02T18:14:17.587Z,66.11
2023-04-02T18:16:58.672Z,66.37
2023-04-02T18:19:56.046Z,66.79
2023-04-02T18:22:38.499Z,66.82
2023-04-02T18:25:54.514Z,66.64
2023-04-02T18:28:59.417Z,67.36
2023-04-02T18:31:41.237Z,67.63
2023-04-02T18:34:56.744Z,67.81
2023-04-02T18:38:03.669Z,68.06
2023-04-02T18:41:02.938Z,68.42
2023-04-02T18:44:01.203Z,68.81
2023-04-02T18:46:56.559Z,69.70
2023-04-02T18:49:58.443Z,69.82
2023-04-02T18:52:43.138Z,68.44
2023-04-02T18:55:37.262Z,67.31
2023-04-02T18:58:22.313Z,66.83
2023-04-02T19:01:19.948Z,67.24
2023-04-02T19:04:19.093Z,67.50
2023-04-02T19:07:16.665Z,68.16
2023-04-02T19:10:06.030Z,68.76
2023-04-02T19:12:59.361Z,69.26
2023-04-02T19:16:18.726Z,69.80
2023-04-02T19:19:19.892Z,69.78
2023-04-02T19:22:19.311Z,70.42
2023-04-02T19:25:36.112Z,70.27
2023-04-02T19:28:35.507Z,71.04
2023-04-02T19:31:44.887Z,72.30
2023-04-02T19:34:44.569Z,71.93
2023-04-02T19:37:42.616Z,71.69
2023-04-02T19:40:37.566Z,71.39
2023-04-02T19:43:32.961Z,71.32
2023-04-02T19:46:27.490Z,71.50
2023-04-02T19:49:10.033Z,71.71
2023-04-02T19:51:46.171Z,72.19
2023-04-02T19:54:21.964Z,72.49
2023-04-02T19:56:58.576Z,72.87
2023-04-02T19:59:31.581Z,72.85
2023-04-02T20:02:24.675Z,72.86
2023-04-02T20:05:18.049Z,72.97
2023-04-02T20:08:10.933Z,73.21
2023-04-02T20:11:05.980Z,73.27
2023-04-02T20:13:53.910Z,73.52
2023-04-02T20:16:46.777Z,73.54
2023-04-02T20:19:38.680Z,73.45
2023-04-02T20:22:31.785Z,73.41
2023-04-02T20:25:24.561Z,73.41
2023-04-02T20:28:17.714Z,73.42
2023-04-02T20:31:09.341Z,73.45
2023-04-02T20:33:55.786Z,73.83
2023-04-02T20:36:34.616Z,73.90
2023-04-02T20:39:09.282Z,74.13
2023-04-02T20:42:17.515Z,74.47
2023-04-02T20:45:08.632Z,74.71
2023-04-02T20:47:52.552Z,74.16
2023-04-02T20:50:38.783Z,74.25
2023-04-02T20:56:36.928Z,74.97
2023-04-02T20:59:31.545Z,74.95
2023-04-02T21:02:24.677Z,74.91
2023-04-02T21:05:19.200Z,75.06
2023-04-02T21:08:12.700Z,74.94
2023-04-02T21:11:08.831Z,75.08
2023-04-02T21:14:02.081Z,75.20
2023-04-02T21:16:55.662Z,75.54
2023-04-02T21:19:48.873Z,75.55
2023-04-02T21:22:40.890Z,75.38
2023-04-02T21:25:34.566Z,75.70
2023-04-02T21:28:28.252Z,75.93
2023-04-02T21:31:23.054Z,76.22
2023-04-02T21:34:18.716Z,76.42
2023-04-02T21:37:10.251Z,76.35
2023-04-02T21:40:03.303Z,76.54
2023-04-02T21:42:57.650Z,76.63
2023-04-02T21:45:50.658Z,76.57
2023-04-02T21:48:36.600Z,76.81
2023-04-02T21:51:31.451Z,76.88
2023-04-02T21:54:24.144Z,77.21
2023-04-02T21:57:18.978Z,77.24
2023-04-02T22:00:13.884Z,77.28
2023-04-02T22:03:06.605Z,77.26
2023-04-02T22:06:01.032Z,77.39
2023-04-02T22:08:57.573Z,77.58
2023-04-02T22:11:54.122Z,77.46
2023-04-02T22:14:46.717Z,77.45
2023-04-02T22:17:41.528Z,77.69
2023-04-02T22:20:34.601Z,77.78
2023-04-02T22:23:07.500Z,77.91
2023-04-02T22:26:01.522Z,77.68
2023-04-02T22:28:34.703Z,77.82
2023-04-02T22:31:22.793Z,77.66
2023-04-02T22:34:06.899Z,77.77
2023-04-02T22:36:59.494Z,77.72
2023-04-02T22:39:52.017Z,77.77
2023-04-02T22:42:35.947Z,77.76
2023-04-02T22:45:21.404Z,77.84
2023-04-02T22:47:54.135Z,77.97
2023-04-02T22:50:52.936Z,77.74
2023-04-02T22:53:47.308Z,77.65
2023-04-02T22:56:40.005Z,77.56
2023-04-02T22:59:25.781Z,77.51
2023-04-02T23:02:08.475Z,77.39
2023-04-02T23:05:01.902Z,77.18
2023-04-02T23:07:54.770Z,77.27
2023-04-02T23:10:37.504Z,77.11
2023-04-02T23:13:30.595Z,77.04
2023-04-02T23:16:27.048Z,77.16
2023-04-02T23:19:19.816Z,77.07
2023-04-02T23:22:12.690Z,76.90
2023-04-02T23:25:05.735Z,77.04
2023-04-02T23:27:52.385Z,76.98
2023-04-02T23:30:46.070Z,77.00
2023-04-02T23:33:38.860Z,77.10
2023-04-02T23:36:17.711Z,76.91
2023-04-02T23:39:12.729Z,76.83
2023-04-02T23:42:05.693Z,76.78
2023-04-02T23:44:43.184Z,76.72
2023-04-02T23:47:36.290Z,76.75
2023-04-02T23:50:30.655Z,76.91
2023-04-02T23:53:14.717Z,76.76
2023-04-02T23:55:50.313Z,76.81
2023-04-02T23:58:43.361Z,76.89
